Terminal Aerodrome Forecast
Issued by NWS Columbia, SC

Current Version | Previous Version | Text Only | Print | Product List | Glossary On
Versions: 1 2 3 4 5 6 7 8 9 10 11 12 13 14 15 16 17 18 19 20 21 22 23 24 25 26 27 28 29 30 31 32 33 34 35 36 37 38 39
000
FTUS42 KCAE 301700
TAFAGS
TAF
KAGS 301738Z 3018/3118 16007KT P6SM VCSH SCT050
     FM310800 00000KT 4SM BR SCT002
     FM311000 00000KT 1SM BR BKN002
     FM311200 00000KT 4SM BR BKN008
     FM311400 20005KT P6SM BKN015=

USA.gov is the U.S. government's official web portal to all federal, state and local government web resources and services.